Time;durP1;ratioP1;P1;durP2;ratioP2;P2;SDS_P1;SDS_P2;PMS_P1;PMS_P2;Temp;Humidity;BMP_temperature;BMP_pressure;BME280_temperature;BME280_humidity;BME280_pressure;Samples;Min_cycle;Max_cycle;Signal;HPM_P1;HPM_P2
2022/01/04 00:00:39;;;;;;;28.30;12.02;;;;;;;-5.66;62.64;98179.69;5071320;28;20048;-64
2022/01/04 00:03:06;;;;;;;21.67;10.90;;;;;;;-5.69;62.47;98177.22;5070889;28;20035;-66
2022/01/04 00:05:32;;;;;;;23.55;11.80;;;;;;;-5.73;62.92;98183.47;5071369;28;20032;-64
2022/01/04 00:07:59;;;;;;;25.40;11.90;;;;;;;-5.76;63.25;98174.00;5071349;28;20454;-65
2022/01/04 00:10:26;;;;;;;23.23;11.07;;;;;;;-5.70;62.62;98177.25;5071179;28;20035;-65
2022/01/04 00:15:39;;;;;;;25.42;11.45;;;;;;;-5.68;62.73;98178.91;5071496;28;20103;-67
2022/01/04 00:18:05;;;;;;;27.70;11.43;;;;;;;-5.93;62.87;98134.72;5070807;28;20056;-65
2022/01/04 00:20:30;;;;;;;25.50;12.07;;;;;;;-5.74;63.29;98170.47;5070633;28;20454;-65
2022/01/04 00:22:56;;;;;;;26.33;11.43;;;;;;;-5.73;62.95;98177.38;5071578;28;20437;-66
2022/01/04 00:25:21;;;;;;;24.20;11.68;;;;;;;-5.64;62.63;98193.50;5071311;28;20051;-65
2022/01/04 00:27:47;;;;;;;26.80;11.52;;;;;;;-5.66;62.77;98190.13;5070693;28;20032;-65
2022/01/04 00:30:13;;;;;;;23.20;10.90;;;;;;;-5.69;62.82;98190.25;5070471;28;20458;-65
2022/01/04 00:32:38;;;;;;;25.75;12.27;;;;;;;-5.65;62.36;98201.41;5069897;28;20051;-66
2022/01/04 00:35:04;;;;;;;26.48;11.88;;;;;;;-5.74;63.04;98194.81;5071157;28;20462;-65
2022/01/04 00:37:30;;;;;;;24.60;11.82;;;;;;;-5.73;62.78;98193.88;5070597;28;20036;-66
2022/01/04 00:39:55;;;;;;;29.48;12.35;;;;;;;-5.68;62.62;98204.97;5070527;28;20458;-65
2022/01/04 00:42:21;;;;;;;26.02;12.38;;;;;;;-5.64;63.14;98203.94;5070802;28;20397;-65
2022/01/04 00:44:46;;;;;;;25.65;11.43;;;;;;;-5.67;62.96;98193.63;5071068;28;20108;-65
2022/01/04 00:47:12;;;;;;;25.30;11.68;;;;;;;-5.57;62.77;98206.28;5069424;28;20028;-65
2022/01/04 00:49:38;;;;;;;26.83;12.02;;;;;;;-5.60;62.90;98195.97;5070068;28;20044;-65
2022/01/04 00:52:04;;;;;;;25.70;11.38;;;;;;;-5.55;62.95;98200.09;5070608;28;20036;-65
2022/01/04 00:54:29;;;;;;;26.63;11.85;;;;;;;-5.49;62.60;98205.06;5071639;28;20059;-66
2022/01/04 00:56:55;;;;;;;24.95;12.32;;;;;;;-5.51;62.84;98204.28;5070763;28;20470;-65
2022/01/04 00:59:20;;;;;;;27.00;12.38;;;;;;;-5.45;62.19;98203.19;5068361;28;20043;-65
2022/01/04 01:01:46;;;;;;;23.98;11.43;;;;;;;-5.49;62.77;98207.66;5070299;28;20107;-65
2022/01/04 01:04:12;;;;;;;27.38;11.85;;;;;;;-5.43;62.23;98206.56;5070826;28;20450;-64
2022/01/04 01:06:38;;;;;;;25.77;12.20;;;;;;;-5.39;62.49;98208.13;5070398;28;20094;-66
2022/01/04 01:09:04;;;;;;;26.80;13.55;;;;;;;-5.31;62.48;98210.44;5068731;28;20024;-64
2022/01/04 01:11:30;;;;;;;24.30;12.25;;;;;;;-5.27;61.70;98214.59;5070835;28;20059;-65
2022/01/04 01:13:56;;;;;;;25.50;11.88;;;;;;;-5.28;62.29;98209.47;5070852;28;20076;-66
2022/01/04 01:16:22;;;;;;;24.85;12.15;;;;;;;-5.23;61.77;98217.94;5070068;28;20103;-65
2022/01/04 01:18:48;;;;;;;26.98;11.85;;;;;;;-5.19;61.71;98220.34;5070212;28;20035;-66
2022/01/04 01:21:13;;;;;;;24.58;11.80;;;;;;;-5.21;61.70;98222.16;5070232;28;20428;-67
2022/01/04 01:23:39;;;;;;;25.40;11.82;;;;;;;-5.34;61.77;98214.00;5069987;28;20024;-65
2022/01/04 01:26:06;;;;;;;27.77;12.95;;;;;;;-5.25;62.05;98219.78;5070284;28;20025;-65
2022/01/04 01:28:33;;;;;;;27.20;11.65;;;;;;;-5.27;61.76;98219.81;5070356;28;20056;-65
2022/01/04 01:30:59;;;;;;;30.25;12.48;;;;;;;-5.39;61.99;98207.31;5070421;28;20398;-66
2022/01/04 01:33:27;;;;;;;27.65;13.15;;;;;;;-5.36;62.38;98218.44;5070125;28;20090;-66
2022/01/04 01:35:56;;;;;;;28.88;12.82;;;;;;;-5.37;61.92;98214.13;5069846;28;20043;-66
2022/01/04 01:38:22;;;;;;;24.38;12.68;;;;;;;-5.28;61.88;98223.34;5070308;28;20452;-67
2022/01/04 01:40:49;;;;;;;30.13;14.00;;;;;;;-5.24;62.20;98218.84;5069689;28;20455;-65
2022/01/04 01:43:15;;;;;;;28.00;12.68;;;;;;;-5.26;61.89;98208.47;5069605;28;20397;-67
2022/01/04 01:45:42;;;;;;;28.95;13.27;;;;;;;-5.22;61.55;98210.03;5070110;28;20028;-66
2022/01/04 01:48:07;;;;;;;29.60;13.50;;;;;;;-5.37;61.94;98219.34;5069823;28;20501;-66
2022/01/04 01:50:33;;;;;;;29.00;14.32;;;;;;;-5.43;62.20;98216.16;5069748;28;20080;-65
2022/01/04 01:52:59;;;;;;;31.83;14.68;;;;;;;-5.45;62.60;98224.06;5070667;28;20471;-66
2022/01/04 01:55:25;;;;;;;30.20;14.48;;;;;;;-5.42;62.68;98220.47;5070337;28;20415;-66
2022/01/04 01:57:52;;;;;;;26.33;12.68;;;;;;;-5.40;62.14;98216.88;5069552;28;20024;-66
2022/01/04 02:00:21;;;;;;;31.25;14.23;;;;;;;-5.39;62.31;98210.75;5069817;28;20082;-67
2022/01/04 02:02:47;;;;;;;32.22;14.60;;;;;;;-5.45;62.57;98223.19;5069242;28;20029;-67
2022/01/04 02:05:13;;;;;;;32.35;15.68;;;;;;;-5.44;62.30;98223.13;5069609;28;20476;-67
2022/01/04 02:07:40;;;;;;;31.13;14.77;;;;;;;-5.59;62.81;98195.06;5069567;28;20118;-65
2022/01/04 02:10:07;;;;;;;29.95;14.15;;;;;;;-5.38;62.38;98222.88;5070306;28;20033;-64
2022/01/04 02:12:38;;;;;;;30.50;14.13;;;;;;;-5.41;62.28;98209.13;5072536;28;20477;-67
2022/01/04 02:15:10;;;;;;;33.13;15.40;;;;;;;-5.33;62.52;98223.53;5072007;28;20037;-64
2022/01/04 02:17:36;;;;;;;33.42;15.63;;;;;;;-5.33;62.32;98233.13;5071961;28;20115;-66
2022/01/04 02:20:03;;;;;;;36.35;15.95;;;;;;;-5.31;62.41;98220.00;5074040;28;20107;-65
2022/01/04 02:22:31;;;;;;;32.92;15.23;;;;;;;-5.37;62.19;98219.34;5073406;28;20382;-65
2022/01/04 02:24:57;;;;;;;34.38;16.77;;;;;;;-5.37;62.68;98214.13;5072691;28;20055;-66
2022/01/04 02:27:22;;;;;;;35.63;16.00;;;;;;;-5.35;62.08;98219.31;5073127;28;20040;-65
2022/01/04 02:29:48;;;;;;;37.25;17.30;;;;;;;-5.41;62.00;98209.13;5073523;28;20142;-64
2022/01/04 02:32:14;;;;;;;37.33;17.05;;;;;;;-5.31;62.02;98226.09;5073150;28;20044;-66
2022/01/04 02:34:45;;;;;;;36.25;16.40;;;;;;;-5.32;61.80;98240.03;5072948;28;20108;-65
2022/01/04 02:37:11;;;;;;;36.28;15.95;;;;;;;-5.34;62.25;98242.69;5073021;28;20032;-66
2022/01/04 02:39:37;;;;;;;37.13;16.52;;;;;;;-5.30;62.33;98243.44;5073247;28;20028;-65
2022/01/04 02:42:06;;;;;;;34.30;15.65;;;;;;;-5.30;61.93;98240.00;5073466;28;20036;-65
2022/01/04 02:44:32;;;;;;;40.33;17.80;;;;;;;-5.30;62.25;98240.81;5072899;28;20382;-66
2022/01/04 02:46:58;;;;;;;38.97;18.17;;;;;;;-5.29;61.97;98244.28;5071444;28;20029;-66
2022/01/04 02:49:24;;;;;;;35.65;17.30;;;;;;;-5.36;61.35;98228.88;5072725;28;20202;-66
2022/01/04 02:51:51;;;;;;;32.60;15.65;;;;;;;-5.23;61.64;98242.25;5073011;28;20519;-64
2022/01/04 02:54:16;;;;;;;41.92;18.88;;;;;;;-5.17;61.98;98241.16;5071226;28;20037;-67
2022/01/04 02:56:42;;;;;;;40.50;17.75;;;;;;;-5.17;61.21;98245.56;5072554;28;20044;-65
2022/01/04 02:59:07;;;;;;;37.75;17.98;;;;;;;-5.22;61.44;98240.50;5073045;28;20032;-63
2022/01/04 03:01:33;;;;;;;37.70;17.10;;;;;;;-5.29;61.68;98244.28;5073032;28;20117;-73
2022/01/04 03:03:58;;;;;;;39.47;18.48;;;;;;;-5.23;62.07;98254.47;5071080;28;20103;-71
2022/01/04 03:06:24;;;;;;;36.75;17.38;;;;;;;-5.28;62.51;98256.44;5072219;28;20036;-70
2022/01/04 03:08:50;;;;;;;40.05;18.15;;;;;;;-5.19;62.20;98261.25;5071546;28;20033;-65
2022/01/04 03:11:15;;;;;;;37.65;18.63;;;;;;;-5.22;61.48;98251.78;5070823;28;20052;-66
2022/01/04 03:13:41;;;;;;;41.15;18.80;;;;;;;-5.19;62.01;98267.31;5071974;28;20036;-67
2022/01/04 03:16:06;;;;;;;37.45;18.00;;;;;;;-5.19;62.00;98266.47;5072401;28;20043;-67
2022/01/04 03:18:32;;;;;;;40.35;18.23;;;;;;;-5.20;61.35;98267.38;5071963;28;20367;-67
2022/01/04 03:20:57;;;;;;;40.45;19.17;;;;;;;-5.41;61.60;98236.06;5071990;28;20036;-65
2022/01/04 03:23:23;;;;;;;38.72;19.20;;;;;;;-5.29;61.76;98262.56;5071517;28;20032;-66
2022/01/04 03:25:48;;;;;;;42.17;18.92;;;;;;;-5.25;61.94;98271.97;5071938;28;20039;-66
2022/01/04 03:28:16;;;;;;;41.83;19.77;;;;;;;-5.23;61.98;98280.56;5070703;28;20382;-65
2022/01/04 03:30:42;;;;;;;39.33;17.73;;;;;;;-5.19;61.65;98276.91;5071644;28;20029;-65
2022/01/04 03:33:07;;;;;;;42.83;19.60;;;;;;;-5.22;61.62;98277.03;5072164;28;20082;-64
2022/01/04 03:35:34;;;;;;;42.13;20.15;;;;;;;-5.19;61.76;98279.53;5070710;28;20024;-64
2022/01/04 03:38:00;;;;;;;42.97;19.73;;;;;;;-5.16;62.37;98275.94;5071387;28;20102;-65
2022/01/04 03:40:25;;;;;;;42.47;20.67;;;;;;;-5.10;61.87;98281.75;5071541;28;20035;-66
2022/01/04 03:42:51;;;;;;;37.38;19.23;;;;;;;-5.14;61.74;98280.16;5071675;28;20486;-66
2022/01/04 03:45:16;;;;;;;42.35;21.02;;;;;;;-5.10;61.61;98279.13;5070087;28;20477;-65
2022/01/04 03:47:42;;;;;;;42.83;21.92;;;;;;;-5.07;61.04;98286.00;5071434;28;20465;-65
2022/01/04 03:50:08;;;;;;;46.75;21.50;;;;;;;-5.10;61.73;98286.13;5071800;28;20047;-64
2022/01/04 03:52:35;;;;;;;43.55;21.30;;;;;;;-5.06;61.96;98288.56;5071405;28;20044;-65
2022/01/04 03:55:03;;;;;;;42.85;20.25;;;;;;;-5.11;61.71;98282.66;5071532;28;20032;-65
2022/01/04 03:57:28;;;;;;;43.80;19.92;;;;;;;-5.03;61.63;98292.78;5071883;28;20063;-64
2022/01/04 03:59:54;;;;;;;43.30;20.25;;;;;;;-5.25;61.56;98258.91;5071487;28;20518;-65
2022/01/04 04:02:19;;;;;;;41.42;19.25;;;;;;;-5.26;61.92;98259.81;5070946;28;20041;-64
2022/01/04 04:04:45;;;;;;;38.22;17.63;;;;;;;-5.05;61.86;98282.41;5071384;28;20409;-65
2022/01/04 04:07:11;;;;;;;37.55;18.17;;;;;;;-4.99;61.96;98296.94;5071808;28;20130;-65
2022/01/04 04:09:36;;;;;;;40.22;18.75;;;;;;;-4.93;61.04;98291.50;5071005;28;20040;-63
2022/01/04 04:12:03;;;;;;;36.75;17.60;;;;;;;-5.11;61.38;98280.03;5070954;28;20028;-65
2022/01/04 04:14:29;;;;;;;34.15;16.05;;;;;;;-5.09;61.43;98280.81;5070049;28;20374;-65
2022/01/04 04:16:55;;;;;;;32.50;16.17;;;;;;;-5.06;61.75;98287.69;5071142;28;20150;-65
2022/01/04 04:19:20;;;;;;;33.33;16.05;;;;;;;-5.09;60.81;98286.03;5070764;28;20386;-65
2022/01/04 04:21:46;;;;;;;31.23;15.73;;;;;;;-5.12;61.49;98288.78;5069373;28;20393;-66
2022/01/04 04:24:11;;;;;;;37.90;15.93;;;;;;;-4.97;61.20;98296.91;5071419;28;20437;-65
2022/01/04 04:26:37;;;;;;;36.08;15.65;;;;;;;-5.05;61.07;98294.59;5071688;28;20036;-65
2022/01/04 04:29:03;;;;;;;38.47;16.90;;;;;;;-5.31;61.02;98256.53;5070764;28;20119;-66
2022/01/04 04:31:28;;;;;;;37.20;18.60;;;;;;;-5.44;61.93;98284.88;5070526;28;20032;-64
2022/01/04 04:33:54;;;;;;;38.33;16.45;;;;;;;-5.56;61.57;98265.34;5070348;28;20033;-65
2022/01/04 04:36:19;;;;;;;38.72;18.23;;;;;;;-5.51;61.84;98299.94;5071141;28;20031;-66
2022/01/04 04:38:45;;;;;;;42.00;17.83;;;;;;;-5.58;62.41;98304.53;5070634;28;20035;-66
2022/01/04 04:41:10;;;;;;;40.17;17.42;;;;;;;-5.50;61.70;98299.88;5071084;28;20032;-66
2022/01/04 04:43:36;;;;;;;38.97;18.38;;;;;;;-5.63;62.33;98299.50;5070960;28;20029;-65
2022/01/04 04:46:02;;;;;;;44.58;18.52;;;;;;;-5.69;62.25;98284.09;5071317;28;20036;-65
2022/01/04 04:48:27;;;;;;;44.22;19.02;;;;;;;-5.63;62.73;98312.53;5070526;28;20028;-66
2022/01/04 04:50:53;;;;;;;40.63;18.92;;;;;;;-5.64;62.65;98308.22;5070311;28;20037;-66
2022/01/04 04:53:19;;;;;;;42.80;18.65;;;;;;;-5.65;62.44;98306.53;5070640;28;20036;-66
2022/01/04 04:55:44;;;;;;;40.17;18.23;;;;;;;-5.78;62.99;98290.53;5071023;28;20031;-66
2022/01/04 04:58:10;;;;;;;35.85;16.73;;;;;;;-5.56;62.64;98314.91;5070871;28;20029;-64
2022/01/04 05:00:36;;;;;;;37.58;17.60;;;;;;;-5.60;62.42;98311.59;5069956;28;20036;-64
2022/01/04 05:03:02;;;;;;;37.75;17.30;;;;;;;-5.70;62.65;98303.25;5070755;28;20032;-64
2022/01/04 05:05:28;;;;;;;31.40;15.52;;;;;;;-5.69;62.24;98304.09;5070608;28;20031;-64
2022/01/04 05:07:53;;;;;;;33.20;15.27;;;;;;;-5.64;62.13;98302.19;5070221;28;20082;-65
2022/01/04 05:10:19;;;;;;;29.33;14.48;;;;;;;-5.70;62.06;98302.41;5035640;28;20028;-65
2022/01/04 05:12:44;;;;;;;33.15;15.48;;;;;;;-5.91;62.46;98287.53;5070333;28;20051;-65
2022/01/04 05:15:10;;;;;;;29.83;14.23;;;;;;;-5.71;63.06;98327.63;5070619;28;20025;-67
2022/01/04 05:17:36;;;;;;;31.77;15.30;;;;;;;-5.70;62.12;98321.50;5070241;28;20024;-66
2022/01/04 05:20:03;;;;;;;31.55;15.73;;;;;;;-5.68;62.78;98329.25;5069784;28;20100;-64
2022/01/04 05:22:28;;;;;;;35.55;17.27;;;;;;;-5.63;62.11;98332.56;5070433;28;20060;-66
2022/01/04 05:24:54;;;;;;;36.75;17.83;;;;;;;-5.68;62.59;98339.69;5069959;28;20076;-66
2022/01/04 05:27:20;;;;;;;32.80;17.55;;;;;;;-5.73;62.58;98334.69;5069621;28;20108;-67
2022/01/04 05:29:46;;;;;;;34.88;17.17;;;;;;;-5.70;62.23;98331.94;5070356;28;20389;-65
2022/01/04 05:32:11;;;;;;;38.63;18.77;;;;;;;-5.71;62.15;98332.00;5070032;28;20028;-64
2022/01/04 05:34:37;;;;;;;41.45;19.05;;;;;;;-5.82;62.30;98340.22;5069768;28;20028;-65
2022/01/04 05:37:02;;;;;;;40.97;18.70;;;;;;;-5.87;62.55;98336.94;5070335;28;20405;-65
2022/01/04 05:39:28;;;;;;;36.13;17.40;;;;;;;-5.81;62.90;98336.69;5069900;28;20060;-65
2022/01/04 05:41:54;;;;;;;34.85;16.90;;;;;;;-5.74;62.41;98332.97;5070102;28;20118;-65
2022/01/04 05:44:19;;;;;;;37.00;17.52;;;;;;;-5.97;62.06;98297.34;5070325;28;20082;-65
2022/01/04 05:46:45;;;;;;;34.28;17.00;;;;;;;-5.76;62.18;98335.63;5072806;28;20163;-66
2022/01/04 05:49:11;;;;;;;31.85;16.08;;;;;;;-5.70;62.44;98344.13;5071989;28;20100;-65
2022/01/04 05:51:37;;;;;;;29.33;14.20;;;;;;;-5.65;62.55;98343.03;5073974;28;20036;-65
2022/01/04 05:54:02;;;;;;;33.13;14.40;;;;;;;-5.63;62.15;98343.81;5074630;28;20504;-64
2022/01/04 05:56:28;;;;;;;27.40;14.02;;;;;;;-5.62;62.32;98344.69;5072416;28;20024;-62
2022/01/04 05:58:53;;;;;;;26.25;13.15;;;;;;;-5.60;61.71;98342.00;5073483;28;20040;-65
2022/01/04 06:01:19;;;;;;;25.98;12.40;;;;;;;-5.82;61.78;98295.91;5072500;28;20363;-64
2022/01/04 06:03:46;;;;;;;27.02;13.73;;;;;;;-5.62;61.75;98345.53;5073877;28;20029;-65
2022/01/04 06:06:12;;;;;;;28.08;13.63;;;;;;;-5.69;62.33;98346.69;5071849;28;20071;-66
2022/01/04 06:08:38;;;;;;;28.80;14.02;;;;;;;-5.65;62.48;98348.25;5073396;28;20056;-67
2022/01/04 06:11:05;;;;;;;28.75;13.57;;;;;;;-5.63;62.31;98354.25;5083463;28;20059;-66
2022/01/04 06:16:14;;;;;;;28.23;14.48;;;;;;;-5.51;61.93;98360.75;5080537;28;20067;-65
2022/01/04 06:18:42;;;;;;;30.48;15.15;;;;;;;-5.53;61.43;98365.19;5082663;28;20099;-66
2022/01/04 06:21:08;;;;;;;25.98;14.18;;;;;;;-5.57;62.11;98375.78;5084293;28;20451;-64
2022/01/04 06:23:34;;;;;;;27.15;13.57;;;;;;;-5.59;62.62;98367.19;5082183;28;20024;-65
2022/01/04 06:25:59;;;;;;;25.90;13.15;;;;;;;-5.48;62.26;98378.06;5082125;28;20119;-66
2022/01/04 06:28:25;;;;;;;24.85;13.55;;;;;;;-5.47;61.54;98379.75;5081234;28;20028;-67
2022/01/04 06:30:51;;;;;;;25.05;13.20;;;;;;;-5.45;61.79;98383.16;5083254;28;20111;-64
2022/01/04 06:33:21;;;;;;;27.35;14.68;;;;;;;-5.44;61.79;98392.69;5082688;28;20028;-65
2022/01/04 06:35:48;;;;;;;32.22;13.15;;;;;;;-5.47;61.95;98387.59;5081332;28;20108;-65
2022/01/04 06:38:14;;;;;;;29.83;13.35;;;;;;;-5.38;61.41;98394.22;5083077;28;20062;-65
2022/01/04 06:40:40;;;;;;;27.73;13.80;;;;;;;-5.45;61.64;98390.97;5081528;28;20060;-62
2022/01/04 06:43:06;;;;;;;25.60;12.90;;;;;;;-5.41;61.85;98392.56;5081138;28;20048;-64
2022/01/04 06:45:31;;;;;;;24.42;11.90;;;;;;;-5.42;61.65;98400.47;5082876;28;20107;-65
2022/01/04 06:47:57;;;;;;;28.40;12.30;;;;;;;-5.44;62.02;98405.72;5080813;28;20108;-65
2022/01/04 06:50:23;;;;;;;24.42;12.02;;;;;;;-5.31;61.56;98413.94;5084558;28;20040;-66
2022/01/04 06:52:49;;;;;;;24.48;12.27;;;;;;;-5.36;61.37;98415.88;5093430;28;20047;-65
2022/01/04 06:55:15;;;;;;;23.48;11.65;;;;;;;-5.38;61.75;98413.31;5092639;28;20024;-64
2022/01/04 06:57:41;;;;;;;26.52;13.45;;;;;;;-5.35;61.84;98405.34;5092074;28;20036;-66
2022/01/04 07:00:08;;;;;;;26.25;12.88;;;;;;;-5.26;62.19;98426.81;5093185;28;20047;-65
2022/01/04 07:02:34;;;;;;;26.00;13.00;;;;;;;-5.14;61.03;98425.47;5092362;28;20040;-65
2022/01/04 07:05:00;;;;;;;25.90;13.02;;;;;;;-5.12;61.15;98421.03;5080445;28;20051;-67
2022/01/04 07:07:25;;;;;;;26.63;13.75;;;;;;;-5.12;61.98;98408.84;5071950;28;20470;-64
2022/01/04 07:09:51;;;;;;;26.83;13.02;;;;;;;-5.01;61.46;98420.63;5072030;28;20028;-66
2022/01/04 07:12:16;;;;;;;30.63;15.23;;;;;;;-5.08;61.08;98396.53;5072361;28;20035;-66
2022/01/04 07:14:41;;;;;;;31.63;15.02;;;;;;;-4.82;60.77;98432.03;5072157;28;20101;-64
2022/01/04 07:17:07;;;;;;;34.85;16.52;;;;;;;-4.72;60.68;98427.25;5071793;28;20040;-66
2022/01/04 07:19:33;;;;;;;33.33;16.23;;;;;;;-4.76;60.75;98433.53;5071944;28;20038;-65
2022/01/04 07:21:58;;;;;;;30.08;15.38;;;;;;;-4.84;60.68;98405.09;5071821;28;20123;-64
2022/01/04 07:24:25;;;;;;;31.85;16.05;;;;;;;-4.65;60.70;98423.50;5071882;28;20115;-64
2022/01/04 07:26:50;;;;;;;33.67;16.55;;;;;;;-4.63;60.43;98431.25;5070899;28;20025;-67
2022/01/04 07:29:16;;;;;;;31.10;15.85;;;;;;;-4.56;60.66;98435.34;5071607;28;20374;-66
2022/01/04 07:31:41;;;;;;;37.10;16.15;;;;;;;-4.49;60.31;98435.91;5070969;28;20020;-65
2022/01/04 07:34:07;;;;;;;29.65;15.77;;;;;;;-4.49;60.32;98426.34;5070731;28;20389;-64
2022/01/04 07:36:32;;;;;;;32.85;16.67;;;;;;;-4.64;60.22;98403.44;5069070;28;20029;-61
2022/01/04 07:38:58;;;;;;;31.85;16.13;;;;;;;-4.56;60.65;98435.34;5070923;28;20032;-65
2022/01/04 07:41:24;;;;;;;33.47;15.60;;;;;;;-4.55;60.47;98429.22;5070419;28;20032;-62
2022/01/04 07:43:50;;;;;;;32.97;15.30;;;;;;;-4.53;60.42;98437.81;5070622;28;20105;-63
2022/01/04 07:46:15;;;;;;;28.08;16.05;;;;;;;-4.40;59.91;98439.91;5068905;28;20470;-63
2022/01/04 07:48:41;;;;;;;31.90;15.95;;;;;;;-4.37;60.06;98434.56;5069408;28;20031;-64
2022/01/04 07:51:06;;;;;;;28.58;14.55;;;;;;;-4.23;59.80;98449.66;5070134;28;20506;-63
2022/01/04 07:53:32;;;;;;;33.35;16.30;;;;;;;-4.14;59.80;98451.03;5070260;28;20028;-65
2022/01/04 07:55:58;;;;;;;36.08;15.10;;;;;;;-4.05;59.21;98455.88;5070605;28;20029;-65
2022/01/04 07:58:24;;;;;;;31.23;15.77;;;;;;;-4.06;59.19;98464.63;5070554;28;20028;-65
2022/01/04 08:00:50;;;;;;;28.95;14.48;;;;;;;-4.14;59.30;98453.66;5069997;28;20438;-64
2022/01/04 08:03:15;;;;;;;30.95;15.35;;;;;;;-4.11;59.69;98456.97;5070187;28;20162;-63
2022/01/04 08:05:41;;;;;;;34.00;16.42;;;;;;;-4.21;59.68;98432.16;5071439;28;20081;-64
2022/01/04 08:08:06;;;;;;;32.53;15.27;;;;;;;-4.13;59.75;98444.88;5071294;28;20504;-62
2022/01/04 08:10:32;;;;;;;33.67;13.98;;;;;;;-4.15;59.76;98449.34;5069884;28;20024;-64
2022/01/04 08:12:57;;;;;;;30.63;14.95;;;;;;;-4.18;59.98;98445.94;5070602;28;20029;-63
2022/01/04 08:15:23;;;;;;;31.83;14.82;;;;;;;-4.15;59.79;98446.72;5071624;28;20028;-66
2022/01/04 08:17:49;;;;;;;28.77;14.70;;;;;;;-4.05;59.98;98450.66;5071277;28;20035;-66
2022/01/04 08:20:17;;;;;;;33.15;15.55;;;;;;;-4.03;59.32;98436.59;5070721;28;20421;-68
2022/01/04 08:22:42;;;;;;;33.25;14.75;;;;;;;-4.04;58.83;98434.06;5070690;28;20032;-64
2022/01/04 08:25:10;;;;;;;30.80;14.65;;;;;;;-4.00;58.93;98440.84;5069762;28;20036;-66
2022/01/04 08:27:36;;;;;;;30.40;15.30;;;;;;;-4.03;58.91;98435.75;5071147;28;20138;-64
2022/01/04 08:30:06;;;;;;;33.63;15.10;;;;;;;-4.04;59.63;98447.97;5070759;28;20028;-70
2022/01/04 08:32:32;;;;;;;32.63;15.02;;;;;;;-4.04;59.15;98445.34;5070822;28;20050;-62
2022/01/04 08:34:58;;;;;;;33.15;16.13;;;;;;;-4.03;58.82;98447.03;5071602;28;20033;-64
2022/01/04 08:37:23;;;;;;;35.65;16.13;;;;;;;-4.00;59.51;98439.97;5071464;28;20066;-65
2022/01/04 08:39:49;;;;;;;34.22;15.65;;;;;;;-3.92;59.26;98449.19;5070890;28;20103;-65
2022/01/04 08:42:15;;;;;;;36.70;17.20;;;;;;;-4.04;59.43;98413.13;5068960;28;20861;-67
2022/01/04 08:44:40;;;;;;;33.40;15.55;;;;;;;-3.85;59.08;98454.19;5070899;28;20029;-66
2022/01/04 08:47:07;;;;;;;41.08;18.15;;;;;;;-3.87;59.07;98450.75;5070908;28;20378;-66
2022/01/04 08:49:32;;;;;;;36.05;16.60;;;;;;;-3.82;58.83;98452.25;5070513;28;20059;-71
2022/01/04 08:51:58;;;;;;;38.63;17.60;;;;;;;-3.79;59.34;98459.13;5067207;28;20040;-71
2022/01/04 08:54:23;;;;;;;36.88;16.80;;;;;;;-3.77;58.88;98446.84;5069932;28;20044;-66
2022/01/04 08:56:49;;;;;;;35.70;17.08;;;;;;;-3.76;58.77;98449.38;5070675;28;20027;-65
2022/01/04 08:59:14;;;;;;;38.83;17.45;;;;;;;-3.74;58.11;98436.22;5070101;28;20028;-69
2022/01/04 09:01:41;;;;;;;36.63;16.42;;;;;;;-3.73;58.71;98442.31;5066609;28;20395;-72
2022/01/04 09:04:07;;;;;;;41.30;17.48;;;;;;;-3.70;59.00;98450.88;5069251;28;20059;-65
2022/01/04 09:06:33;;;;;;;37.15;16.63;;;;;;;-3.62;58.25;98448.78;5069490;28;20038;-67
2022/01/04 09:08:59;;;;;;;39.47;18.17;;;;;;;-3.65;58.55;98448.06;5069236;28;20086;-65
2022/01/04 09:11:26;;;;;;;43.63;17.33;;;;;;;-3.59;57.95;98454.78;5069875;28;20074;-66
2022/01/04 09:14:05;;;;;;;38.47;17.98;;;;;;;-3.70;58.25;98455.25;5069766;28;20032;-67
2022/01/04 09:19:14;;;;;;;41.60;17.73;;;;;;;-3.90;58.97;98420.38;5069436;28;20062;-70
2022/01/04 09:21:39;;;;;;;37.45;16.33;;;;;;;-3.65;58.33;98464.59;5072301;28;20105;-72
2022/01/04 09:24:05;;;;;;;40.92;17.75;;;;;;;-3.75;58.09;98465.91;5073458;28;20475;-71
2022/01/04 09:26:31;;;;;;;41.08;17.33;;;;;;;-3.78;58.02;98458.22;5073935;28;20033;-68
2022/01/04 09:28:57;;;;;;;36.92;16.52;;;;;;;-3.84;57.86;98456.72;5072830;28;20303;-72
2022/01/04 09:31:25;;;;;;;37.35;16.23;;;;;;;-3.89;58.34;98467.34;5073693;28;20055;-68
2022/01/04 09:33:51;;;;;;;42.70;18.55;;;;;;;-4.12;59.38;98467.50;5073051;28;20497;-65
2022/01/04 09:36:17;;;;;;;40.38;17.08;;;;;;;-4.22;59.71;98477.50;5073764;28;20591;-66
2022/01/04 09:38:42;;;;;;;38.42;17.05;;;;;;;-4.26;59.47;98458.50;5073321;28;20032;-70
2022/01/04 09:41:08;;;;;;;43.17;18.40;;;;;;;-4.12;59.60;98465.75;5072994;28;20086;-68
2022/01/04 09:43:34;;;;;;;43.78;18.58;;;;;;;-4.22;59.12;98433.91;5073642;28;20032;-70
2022/01/04 09:46:00;;;;;;;43.53;18.42;;;;;;;-3.91;59.47;98458.72;5072617;28;20032;-67
2022/01/04 09:48:26;;;;;;;44.13;18.05;;;;;;;-3.81;59.21;98466.19;5073304;28;20037;-73
2022/01/04 09:50:55;;;;;;;39.33;18.48;;;;;;;-3.75;58.93;98465.91;5074083;28;20049;-73
2022/01/04 09:53:21;;;;;;;43.22;19.00;;;;;;;-3.71;58.44;98461.41;5073814;28;20440;-73
2022/01/04 09:55:48;;;;;;;43.40;18.25;;;;;;;-3.70;58.40;98452.66;5073404;28;20448;-71
2022/01/04 09:58:14;;;;;;;48.40;20.38;;;;;;;-3.59;58.57;98460.03;5067808;28;20434;-71
2022/01/04 10:00:40;;;;;;;45.38;18.65;;;;;;;-3.53;58.65;98459.72;5052752;28;20061;-69
2022/01/04 10:03:12;;;;;;;45.00;19.58;;;;;;;-3.51;58.65;98468.38;5071454;28;20092;-72
2022/01/04 10:05:38;;;;;;;52.60;20.33;;;;;;;-3.74;58.10;98431.00;5058010;28;20063;-71
2022/01/04 10:08:06;;;;;;;49.83;19.88;;;;;;;-3.52;57.98;98469.28;5052968;28;20025;-73
2022/01/04 10:10:33;;;;;;;40.03;17.77;;;;;;;-3.54;57.77;98465.88;5053673;28;20033;-73
2022/01/04 10:13:08;;;;;;;42.05;18.83;;;;;;;-3.52;58.13;98471.91;5052746;28;20371;-66
2022/01/04 10:15:47;;;;;;;40.25;17.88;;;;;;;-3.45;58.22;98475.94;5052265;28;20036;-72
2022/01/04 10:18:12;;;;;;;45.25;18.35;;;;;;;-3.47;57.77;98483.00;5052404;28;20382;-74
2022/01/04 10:20:49;;;;;;;47.10;18.33;;;;;;;-3.43;57.47;98471.47;5053718;28;20047;-74
2022/01/04 10:23:19;;;;;;;40.15;17.92;;;;;;;-3.45;57.82;98468.09;5052220;28;20032;-73
2022/01/04 10:25:47;;;;;;;46.40;20.48;;;;;;;-3.44;57.41;98475.00;5053142;28;20041;-72
2022/01/04 10:28:26;;;;;;;53.55;21.48;;;;;;;-3.50;57.73;98476.13;5053187;28;20029;-71
2022/01/04 10:30:52;;;;;;;51.13;22.35;;;;;;;-3.47;57.34;98480.38;5052887;28;20090;-72
2022/01/04 10:33:21;;;;;;;60.85;25.73;;;;;;;-3.50;57.22;98476.13;5051632;28;20623;-67
2022/01/04 10:35:48;;;;;;;69.85;26.33;;;;;;;-3.49;56.89;98480.47;5052095;28;20036;-65
2022/01/04 10:38:16;;;;;;;74.00;27.77;;;;;;;-3.48;56.72;98478.69;5052085;28;20064;-64
2022/01/04 10:40:45;;;;;;;78.22;30.77;;;;;;;-3.47;56.67;98478.63;5052201;28;20116;-65
2022/01/04 10:43:17;;;;;;;77.80;31.45;;;;;;;-3.45;57.38;98473.31;5052524;28;20379;-66
2022/01/04 10:45:45;;;;;;;80.15;31.80;;;;;;;-3.42;57.45;98473.16;5052307;28;20167;-65
2022/01/04 10:48:13;;;;;;;79.82;31.33;;;;;;;-3.39;57.25;98473.03;5052592;28;20037;-65
2022/01/04 10:50:40;;;;;;;81.65;30.42;;;;;;;-3.32;56.17;98477.09;5052983;28;20053;-65
2022/01/04 10:53:14;;;;;;;79.45;30.98;;;;;;;-3.27;57.10;98476.03;5052278;28;20102;-66
2022/01/04 10:55:39;;;;;;;75.13;31.50;;;;;;;-3.30;56.93;98478.78;5052332;28;20047;-66
2022/01/04 10:58:05;;;;;;;82.25;32.78;;;;;;;-3.33;57.07;98472.78;5052057;28;20036;-64
2022/01/04 11:00:31;;;;;;;78.90;31.15;;;;;;;-3.31;56.45;98483.16;5052032;28;20036;-65
2022/01/04 11:02:58;;;;;;;75.82;30.20;;;;;;;-3.27;56.74;98489.94;5052687;28;20037;-65
2022/01/04 11:05:25;;;;;;;72.22;28.10;;;;;;;-3.21;55.86;98483.59;5052275;28;20039;-64
2022/01/04 11:08:02;;;;;;;64.18;27.23;;;;;;;-3.22;56.96;98480.13;5052194;28;20025;-65
2022/01/04 11:10:31;;;;;;;66.20;26.55;;;;;;;-3.27;56.63;98486.50;5052667;28;20029;-64
2022/01/04 11:12:58;;;;;;;67.80;27.20;;;;;;;-3.36;56.48;98469.44;5052056;28;20025;-65
2022/01/04 11:15:26;;;;;;;66.75;26.33;;;;;;;-3.19;56.54;98479.13;5052341;28;20075;-65
2022/01/04 11:17:52;;;;;;;63.55;25.83;;;;;;;-3.16;56.72;98471.13;5051971;28;20740;-68
2022/01/04 11:20:19;;;;;;;54.75;21.75;;;;;;;-3.12;56.18;98469.22;5051310;28;20032;-64